Chachapoyas, Argentina
Current Conditions -  °F | °C
As of 6:00 PM on Tuesday 21 Oct 2014 (Local Time) from SASA Reporting Station
Clear Clear  
Wind Chill: 77°   Ceiling: Unl
Heat Index: 78°   Visibility: 6mi
Dew Point: 54°   Wind: 12mph
Humidity: 44%   Direction: 70°ENE
Pressure: 30.12"   Gusts: NA
Location:  24.75°S, 65.38°W
Report Text: SASA 212100Z 07010KT CAVOK 25/12 Q1020
Loading
Personal Weather Stations






























Interactive Weather Map
Tropical Storm Tracking
New forecast layout! Learn more

10-Day Weather Forecast

Advertisements
Track Severe Weather on mobile